Time;durP1;ratioP1;P1;durP2;ratioP2;P2;SDS_P1;SDS_P2;PMS_P1;PMS_P2;Temp;Humidity;BMP_temperature;BMP_pressure;BME280_temperature;BME280_humidity;BME280_pressure;Samples;Min_cycle;Max_cycle;Signal;HPM_P1;HPM_P2
2024/03/30 00:02:24;;;;;;;12.13;3.83;;;;;;;14.60;57.82;96617.06;5050606;28;20259;-77
2024/03/30 00:04:50;;;;;;;11.57;3.30;;;;;;;14.68;57.15;96615.50;5050432;28;20201;-77
2024/03/30 00:07:17;;;;;;;10.90;3.57;;;;;;;14.54;57.72;96612.16;5049860;28;20259;-77
2024/03/30 00:09:43;;;;;;;10.27;3.07;;;;;;;14.60;56.74;96617.06;5050740;28;20202;-77
2024/03/30 00:12:12;;;;;;;9.53;3.53;;;;;;;14.66;56.69;96615.03;5051310;28;20691;-77
2024/03/30 00:14:38;;;;;;;8.67;2.93;;;;;;;14.48;57.21;96616.03;5050326;28;20199;-77
2024/03/30 00:17:06;;;;;;;8.90;3.53;;;;;;;14.38;57.63;96617.91;5039553;28;20206;-77
2024/03/30 00:19:32;;;;;;;10.57;4.40;;;;;;;14.45;56.80;96617.47;5049687;28;20628;-77
2024/03/30 00:22:00;;;;;;;8.83;3.50;;;;;;;14.36;57.08;96612.03;5034237;28;20201;-77
2024/03/30 00:24:25;;;;;;;8.93;3.37;;;;;;;14.22;57.17;96618.63;5034026;28;20272;-76
2024/03/30 00:26:52;;;;;;;11.17;3.97;;;;;;;14.31;56.93;96619.44;5033016;28;20660;-77
2024/03/30 00:29:18;;;;;;;18.13;4.83;;;;;;;14.22;57.35;96618.63;5054053;28;20197;-76
2024/03/30 00:31:45;;;;;;;7.40;3.93;;;;;;;14.47;56.46;96620.59;5052953;28;20203;-77
2024/03/30 00:34:12;;;;;;;5.20;2.90;;;;;;;14.29;56.25;96625.13;5053412;28;20209;-77
2024/03/30 00:36:39;;;;;;;10.53;2.93;;;;;;;14.23;56.25;96618.31;5052747;28;20196;-77
2024/03/30 00:39:07;;;;;;;9.90;3.40;;;;;;;14.18;56.19;96607.75;5053415;28;20223;-76
2024/03/30 00:41:34;;;;;;;9.30;2.83;;;;;;;14.09;56.51;96621.06;5053250;28;20199;-76
2024/03/30 00:44:00;;;;;;;14.90;5.53;;;;;;;13.59;58.08;96609.75;5054162;28;20211;-77
2024/03/30 00:46:26;;;;;;;9.03;3.73;;;;;;;13.64;58.21;96634.50;5051819;28;20580;-77
2024/03/30 00:48:52;;;;;;;9.03;3.37;;;;;;;13.59;58.12;96631.13;5052993;28;20721;-77
2024/03/30 00:51:20;;;;;;;14.97;3.93;;;;;;;13.30;58.47;96607.50;5053268;28;20204;-77
2024/03/30 00:53:46;;;;;;;6.97;2.70;;;;;;;13.38;58.04;96622.81;5052399;28;20574;-77
2024/03/30 00:56:13;;;;;;;10.03;4.63;;;;;;;13.02;57.60;96556.78;5052946;28;20283;-77
2024/03/30 00:58:38;;;;;;;9.47;2.97;;;;;;;13.57;57.59;96617.31;5053081;28;20231;-77
2024/03/30 01:01:08;;;;;;;7.43;3.10;;;;;;;13.80;57.15;96621.53;5052150;28;20202;-77
2024/03/30 01:03:34;;;;;;;12.57;3.90;;;;;;;13.69;57.05;96614.84;5052847;28;20193;-77
2024/03/30 01:06:01;;;;;;;7.87;2.77;;;;;;;13.67;56.95;96619.75;5052304;28;20198;-77
2024/03/30 01:08:28;;;;;;;13.50;3.23;;;;;;;13.50;57.30;96617.72;5053097;28;20199;-77
2024/03/30 01:10:58;;;;;;;11.83;3.07;;;;;;;13.50;57.55;96611.59;5052360;28;20194;-76
2024/03/30 01:13:25;;;;;;;10.07;3.23;;;;;;;13.60;57.32;96614.81;5052248;28;20254;-76
2024/03/30 01:15:52;;;;;;;11.90;3.60;;;;;;;13.63;56.99;96614.22;5052717;28;20674;-76
2024/03/30 01:18:18;;;;;;;13.00;3.30;;;;;;;13.43;57.12;96599.41;5052563;28;20206;-77
2024/03/30 01:20:46;;;;;;;10.23;4.30;;;;;;;13.55;57.00;96611.44;5051989;28;20566;-77
2024/03/30 01:23:12;;;;;;;9.17;4.67;;;;;;;13.61;56.86;96610.25;5046170;28;20203;-77
2024/03/30 01:25:41;;;;;;;8.03;3.80;;;;;;;13.67;57.08;96612.50;5040802;28;20238;-77
2024/03/30 01:28:09;;;;;;;8.43;3.53;;;;;;;13.57;56.90;96604.72;5053380;28;20202;-77
2024/03/30 01:30:36;;;;;;;10.60;3.40;;;;;;;13.61;56.95;96618.28;5052259;28;20669;-77
2024/03/30 01:33:03;;;;;;;5.70;3.10;;;;;;;13.33;57.53;96610.38;5048000;28;20205;-77
2024/03/30 01:35:29;;;;;;;9.93;4.03;;;;;;;13.30;58.34;96612.84;5036312;28;20198;-77
2024/03/30 01:37:55;;;;;;;5.60;2.93;;;;;;;13.52;56.70;96612.88;5052023;28;20628;-77
2024/03/30 01:40:22;;;;;;;4.97;2.80;;;;;;;13.36;56.50;96611.66;5052384;28;20232;-77
2024/03/30 01:42:49;;;;;;;5.27;2.70;;;;;;;13.25;57.19;96615.66;5052173;28;20198;-77
2024/03/30 01:45:16;;;;;;;9.20;5.10;;;;;;;13.28;56.86;96599.78;5051488;28;20198;-77
2024/03/30 01:47:43;;;;;;;12.60;7.20;;;;;;;13.29;57.24;96609.38;5052483;28;20195;-76
2024/03/30 01:50:09;;;;;;;14.03;8.93;;;;;;;13.08;57.29;96592.19;5052130;28;20205;-77
2024/03/30 01:52:37;;;;;;;7.90;5.77;;;;;;;12.91;58.21;96609.66;5051825;28;20252;-77
2024/03/30 01:55:07;;;;;;;11.00;6.40;;;;;;;12.95;58.33;96610.63;5051605;28;20203;-77
2024/03/30 01:57:34;;;;;;;12.90;5.13;;;;;;;13.06;58.11;96610.41;5044518;28;20669;-77
2024/03/30 02:00:05;;;;;;;5.90;3.70;;;;;;;13.00;58.18;96606.28;5043287;28;20229;-77
2024/03/30 02:02:32;;;;;;;3.83;2.90;;;;;;;12.98;58.04;96609.25;5051521;28;20202;-77
2024/03/30 02:04:58;;;;;;;7.57;3.23;;;;;;;12.89;58.31;96606.50;5034081;28;20221;-77
2024/03/30 02:07:25;;;;;;;7.87;3.80;;;;;;;12.87;58.66;96610.56;5031678;28;20194;-76
2024/03/30 02:09:52;;;;;;;9.50;2.77;;;;;;;12.77;58.97;96606.22;5032326;28;20198;-76
2024/03/30 02:12:19;;;;;;;9.47;2.97;;;;;;;12.61;59.34;96612.97;5041594;28;20248;-76
2024/03/30 02:14:45;;;;;;;9.77;3.30;;;;;;;12.40;60.19;96600.03;5052098;28;20194;-76
2024/03/30 02:17:13;;;;;;;13.50;3.43;;;;;;;12.29;60.88;96611.19;5050996;28;20241;-78
2024/03/30 02:19:44;;;;;;;7.20;3.17;;;;;;;12.19;61.21;96593.47;5052019;28;20224;-77
2024/03/30 02:22:11;;;;;;;7.07;2.20;;;;;;;12.21;61.22;96602.78;5050861;28;20202;-77
2024/03/30 02:24:38;;;;;;;9.87;2.80;;;;;;;12.03;61.52;96573.50;5050783;28;20669;-77
2024/03/30 02:27:05;;;;;;;5.57;2.57;;;;;;;11.80;61.51;96541.34;5051335;28;20197;-77
2024/03/30 02:29:33;;;;;;;10.77;3.27;;;;;;;12.55;60.25;96598.16;5051903;28;20206;-77
2024/03/30 02:31:59;;;;;;;7.50;2.93;;;;;;;12.37;60.65;96607.81;5050872;28;20209;-77
2024/03/30 02:34:25;;;;;;;7.67;2.80;;;;;;;12.41;59.85;96596.25;5051013;28;20256;-77
2024/03/30 02:36:53;;;;;;;8.00;3.23;;;;;;;12.39;60.40;96598.44;5050469;28;20205;-78
2024/03/30 02:39:19;;;;;;;3.87;2.73;;;;;;;12.48;60.06;96604.66;5051371;28;20225;-77
2024/03/30 02:41:47;;;;;;;8.03;3.33;;;;;;;12.29;60.40;96601.31;5044247;28;20198;-77
2024/03/30 02:44:13;;;;;;;9.97;3.87;;;;;;;12.48;60.05;96596.66;5032024;28;20210;-77
2024/03/30 02:46:39;;;;;;;11.40;4.73;;;;;;;12.41;59.88;96600.81;5043244;28;20661;-77
2024/03/30 02:49:05;;;;;;;118.10;61.60;;;;;;;12.10;60.78;96598.72;5051053;28;20212;-77
2024/03/30 02:51:32;;;;;;;22.90;11.03;;;;;;;12.15;60.86;96597.81;5050269;28;20592;-77
2024/03/30 02:53:58;;;;;;;8.53;3.63;;;;;;;11.94;60.64;96597.41;5050875;28;20190;-77
2024/03/30 02:56:25;;;;;;;8.13;3.23;;;;;;;12.13;60.62;96603.47;5050853;28;20208;-76
2024/03/30 02:58:52;;;;;;;5.53;3.53;;;;;;;12.24;60.30;96604.06;5050767;28;20704;-77
2024/03/30 03:01:19;;;;;;;7.80;4.23;;;;;;;12.31;60.10;96590.31;5050312;28;20498;-77
2024/03/30 03:03:44;;;;;;;5.70;4.23;;;;;;;12.40;59.62;96593.91;5051249;28;20209;-77
2024/03/30 03:06:11;;;;;;;11.53;4.63;;;;;;;12.38;59.60;96586.16;5047392;28;20194;-77
2024/03/30 03:08:37;;;;;;;11.83;3.33;;;;;;;12.38;59.78;96585.38;5037827;28;20611;-77
2024/03/30 03:11:04;;;;;;;4.87;3.07;;;;;;;12.35;59.66;96589.44;5040879;28;20233;-77
2024/03/30 03:13:30;;;;;;;9.87;3.90;;;;;;;12.17;60.54;96595.66;5030688;28;20205;-77
2024/03/30 03:16:04;;;;;;;6.67;3.73;;;;;;;12.17;60.56;96591.13;5031222;28;20194;-77
2024/03/30 03:18:30;;;;;;;5.50;3.20;;;;;;;12.17;59.91;96593.00;5030236;28;20210;-77
2024/03/30 03:20:56;;;;;;;20.30;6.23;;;;;;;12.00;60.60;96598.88;5044209;28;20205;-78
2024/03/30 03:23:24;;;;;;;19.13;13.17;;;;;;;11.97;61.57;96599.50;5040991;28;20210;-77
2024/03/30 03:25:51;;;;;;;9.20;6.70;;;;;;;11.86;62.02;96598.09;5035239;28;20197;-77
2024/03/30 03:28:17;;;;;;;7.53;4.10;;;;;;;11.80;62.49;96604.56;5051043;28;20664;-77
2024/03/30 03:30:44;;;;;;;12.37;7.53;;;;;;;11.78;62.42;96610.19;5050237;28;20200;-77
2024/03/30 03:33:11;;;;;;;9.60;4.53;;;;;;;12.01;61.75;96613.03;5050445;28;20209;-77
2024/03/30 03:35:38;;;;;;;7.20;3.80;;;;;;;12.00;61.94;96609.56;5051093;28;20198;-77
2024/03/30 03:38:04;;;;;;;12.67;4.17;;;;;;;11.85;62.24;96613.31;5038776;28;20207;-77
2024/03/30 03:40:31;;;;;;;24.63;15.97;;;;;;;11.84;62.29;96616.25;5030162;28;20223;-77
2024/03/30 03:42:57;;;;;;;15.50;10.27;;;;;;;11.34;62.39;96558.13;5030555;28;20203;-77
2024/03/30 03:45:23;;;;;;;10.83;7.93;;;;;;;11.57;62.92;96622.25;5033556;28;20201;-76
2024/03/30 03:47:49;;;;;;;5.90;3.30;;;;;;;11.43;62.46;96598.25;5052230;28;20193;-77
2024/03/30 03:50:18;;;;;;;5.23;2.53;;;;;;;11.71;62.04;96625.78;5053391;28;20572;-77
2024/03/30 03:52:43;;;;;;;7.60;3.30;;;;;;;11.63;62.07;96626.44;5054204;28;20288;-77
2024/03/30 03:55:10;;;;;;;5.27;2.67;;;;;;;11.46;61.97;96609.13;5054443;28;20272;-77
2024/03/30 03:57:36;;;;;;;6.23;2.77;;;;;;;11.59;62.58;96636.13;5053823;28;20208;-77
2024/03/30 04:00:03;;;;;;;8.57;2.43;;;;;;;11.63;62.31;96640.56;5053986;28;20233;-77
2024/03/30 04:02:29;;;;;;;6.07;2.43;;;;;;;11.72;62.21;96635.34;5040763;28;20640;-78
2024/03/30 04:04:56;;;;;;;7.90;2.63;;;;;;;11.84;61.80;96633.03;5037050;28;20296;-77
2024/03/30 04:07:23;;;;;;;7.37;3.70;;;;;;;12.08;61.84;96634.78;5053590;28;20198;-77
2024/03/30 04:09:51;;;;;;;12.40;5.90;;;;;;;11.85;61.63;96607.16;5053665;28;20204;-77
2024/03/30 04:12:17;;;;;;;13.97;6.67;;;;;;;12.10;61.17;96635.28;5053789;28;20194;-77
2024/03/30 04:14:47;;;;;;;11.80;5.00;;;;;;;12.08;61.34;96637.44;5053972;28;20660;-77
2024/03/30 04:17:13;;;;;;;12.20;4.17;;;;;;;11.99;61.77;96642.66;5053155;28;20660;-77
2024/03/30 04:19:40;;;;;;;9.20;3.40;;;;;;;11.91;61.79;96646.00;5053738;28;20348;-77
2024/03/30 04:22:05;;;;;;;9.17;3.13;;;;;;;12.11;61.09;96652.88;5054033;28;20667;-77
2024/03/30 04:24:34;;;;;;;10.40;3.83;;;;;;;12.10;61.05;96645.94;5053484;28;20577;-77
2024/03/30 04:26:59;;;;;;;12.30;5.63;;;;;;;12.10;60.99;96640.63;5053786;28;20214;-77
2024/03/30 04:29:27;;;;;;;13.57;7.33;;;;;;;12.11;61.10;96650.19;5044952;28;20202;-77
2024/03/30 04:31:53;;;;;;;13.67;7.27;;;;;;;12.10;61.30;96654.75;5053951;28;20190;-77
2024/03/30 04:34:19;;;;;;;14.10;5.57;;;;;;;12.12;61.65;96649.09;5053465;28;20673;-77
2024/03/30 04:36:46;;;;;;;12.30;5.70;;;;;;;11.90;61.79;96650.56;5052548;28;20205;-77
2024/03/30 04:39:13;;;;;;;9.53;5.27;;;;;;;11.78;61.99;96652.06;5048862;28;20705;-77
2024/03/30 04:41:41;;;;;;;9.80;3.47;;;;;;;11.69;62.50;96660.75;5041432;28;20274;-77
2024/03/30 04:44:07;;;;;;;9.73;3.77;;;;;;;11.87;61.57;96659.13;5053073;28;20669;-77
2024/03/30 04:46:34;;;;;;;3.97;2.90;;;;;;;11.84;61.85;96654.38;5052818;28;20205;-76
2024/03/30 04:48:59;;;;;;;13.20;3.10;;;;;;;12.07;61.11;96643.88;5052951;28;20252;-77
2024/03/30 04:51:26;;;;;;;6.40;2.70;;;;;;;12.06;61.22;96647.63;5052945;28;20604;-77
2024/03/30 04:53:52;;;;;;;12.10;4.30;;;;;;;12.21;60.75;96653.47;5053176;28;20194;-77
2024/03/30 04:56:19;;;;;;;20.00;11.30;;;;;;;12.01;61.43;96634.38;5053098;28;20615;-77
2024/03/30 04:58:46;;;;;;;11.23;5.20;;;;;;;11.96;62.36;96651.25;5052502;28;20221;-77
2024/03/30 05:01:13;;;;;;;10.67;4.20;;;;;;;12.09;62.55;96650.50;5052715;28;20209;-77
2024/03/30 05:03:38;;;;;;;8.40;4.03;;;;;;;12.17;62.00;96649.81;5052702;28;20198;-77
2024/03/30 05:06:06;;;;;;;12.23;4.80;;;;;;;12.21;62.23;96648.16;5053034;28;20202;-77
2024/03/30 05:08:32;;;;;;;7.70;4.47;;;;;;;12.18;62.77;96645.28;5052650;28;20281;-77
2024/03/30 05:10:59;;;;;;;12.97;6.27;;;;;;;12.02;62.89;96622.63;5052352;28;20193;-77
2024/03/30 05:13:25;;;;;;;9.57;6.03;;;;;;;12.33;62.80;96660.22;5052934;28;20202;-77
2024/03/30 05:15:53;;;;;;;11.20;6.40;;;;;;;12.34;62.85;96651.91;5052129;28;20209;-77
2024/03/30 05:18:21;;;;;;;10.47;6.23;;;;;;;12.39;62.53;96653.69;5053024;28;20691;-77
2024/03/30 05:20:57;;;;;;;21.30;11.10;;;;;;;12.54;61.54;96655.28;5038964;28;20288;-77
2024/03/30 05:23:24;;;;;;;13.57;8.33;;;;;;;12.61;61.07;96650.34;5052510;28;20655;-77
2024/03/30 05:25:52;;;;;;;14.43;5.37;;;;;;;12.64;61.70;96647.88;5052392;28;20204;-78
2024/03/30 05:28:19;;;;;;;11.57;7.03;;;;;;;12.55;62.40;96657.66;5051712;28;20198;-78
2024/03/30 05:30:49;;;;;;;18.13;11.20;;;;;;;12.37;61.76;96659.31;5041678;28;20232;-78
2024/03/30 05:33:17;;;;;;;17.17;9.40;;;;;;;12.42;62.05;96655.78;5051367;28;20198;-78
2024/03/30 05:35:43;;;;;;;11.83;7.53;;;;;;;12.65;61.81;96656.66;5050698;28;20200;-77
2024/03/30 05:38:09;;;;;;;12.23;7.23;;;;;;;12.32;61.46;96587.38;5051860;28;20558;-77
2024/03/30 05:40:37;;;;;;;12.90;7.53;;;;;;;12.78;61.57;96649.72;5039181;28;20276;-77
2024/03/30 05:43:03;;;;;;;7.30;5.63;;;;;;;12.89;60.75;96645.75;5052050;28;20197;-76
2024/03/30 05:45:31;;;;;;;9.43;4.77;;;;;;;12.94;60.56;96641.13;5051804;28;20247;-77
2024/03/30 05:47:57;;;;;;;16.13;6.30;;;;;;;12.93;60.27;96623.50;5051645;28;20194;-77
2024/03/30 05:50:26;;;;;;;9.50;4.83;;;;;;;13.29;59.95;96635.34;5051688;28;20209;-78
2024/03/30 05:52:53;;;;;;;8.13;4.03;;;;;;;13.57;58.64;96642.16;5051915;28;20202;-78
2024/03/30 05:55:21;;;;;;;6.13;3.77;;;;;;;13.52;58.75;96636.16;5051042;28;20691;-77
2024/03/30 05:57:47;;;;;;;9.33;3.77;;;;;;;13.72;58.28;96645.56;5051374;28;20198;-77
2024/03/30 06:00:15;;;;;;;12.63;3.43;;;;;;;13.84;58.20;96635.09;5051889;28;20309;-77
2024/03/30 06:02:43;;;;;;;9.57;4.40;;;;;;;14.09;57.44;96636.34;5037540;28;20224;-77
2024/03/30 06:05:10;;;;;;;10.13;4.17;;;;;;;14.21;57.53;96641.94;5051534;28;20206;-77
2024/03/30 06:07:38;;;;;;;8.33;3.50;;;;;;;14.49;57.38;96644.41;5050806;28;20278;-76
2024/03/30 06:10:06;;;;;;;10.03;4.10;;;;;;;14.58;56.34;96650.59;5050537;28;20676;-76
2024/03/30 06:12:32;;;;;;;8.53;4.13;;;;;;;14.69;56.57;96651.91;5051754;28;20198;-76
2024/03/30 06:14:59;;;;;;;7.20;3.50;;;;;;;14.59;56.06;96628.84;5051082;28;20204;-77
2024/03/30 06:17:25;;;;;;;16.23;4.33;;;;;;;14.96;56.05;96647.41;5036553;28;20202;-77
2024/03/30 06:19:52;;;;;;;8.83;3.70;;;;;;;15.21;55.28;96653.91;5047566;28;20222;-76
2024/03/30 06:22:18;;;;;;;10.73;3.17;;;;;;;15.50;54.25;96656.00;5048047;28;20278;-79
2024/03/30 06:24:49;;;;;;;17.80;4.30;;;;;;;15.59;53.73;96651.41;5044433;28;20666;-79
2024/03/30 06:27:14;;;;;;;7.57;3.43;;;;;;;15.68;53.94;96644.19;5050670;28;20603;-79
2024/03/30 06:29:41;;;;;;;15.20;3.80;;;;;;;15.73;54.05;96654.75;5051611;28;20208;-79
2024/03/30 06:32:07;;;;;;;9.53;3.17;;;;;;;15.86;53.64;96653.78;5050817;28;20196;-79
2024/03/30 06:34:34;;;;;;;8.87;3.57;;;;;;;15.67;53.91;96647.16;5049305;28;20215;-79
2024/03/30 06:37:00;;;;;;;8.73;3.40;;;;;;;16.03;53.02;96660.22;5049527;28;20690;-79
2024/03/30 06:43:40;;;;;;;15.27;3.97;;;;;;;16.25;52.75;96670.75;5041384;28;20212;-79
2024/03/30 06:44:59;;;;;;;19.47;9.70;;;;;;;16.06;53.40;96667.63;5050328;28;20207;-79
2024/03/30 06:47:25;;;;;;;24.37;9.57;;;;;;;16.14;53.03;96656.09;5051086;28;20203;-79
2024/03/30 06:49:52;;;;;;;7.30;3.13;;;;;;;16.49;52.15;96662.13;5050953;28;20209;-79
2024/03/30 06:52:19;;;;;;;8.23;5.13;;;;;;;16.54;52.19;96651.22;5048451;28;20299;-80
2024/03/30 06:54:46;;;;;;;10.07;3.30;;;;;;;16.87;51.29;96662.16;5047423;28;20197;-80
2024/03/30 06:57:11;;;;;;;13.10;4.40;;;;;;;17.02;50.49;96660.03;5050661;28;20551;-79
2024/03/30 06:59:40;;;;;;;9.60;3.03;;;;;;;17.02;50.47;96662.72;5049904;28;20247;-79
2024/03/30 07:02:06;;;;;;;9.57;3.83;;;;;;;17.28;49.74;96652.56;5050435;28;20197;-79
2024/03/30 07:04:32;;;;;;;8.73;3.40;;;;;;;17.80;48.26;96660.25;5050204;28;20205;-79
2024/03/30 07:06:59;;;;;;;11.40;5.20;;;;;;;18.02;47.15;96664.50;5050613;28;20202;-79
2024/03/30 07:09:25;;;;;;;14.87;4.60;;;;;;;18.20;46.88;96665.13;5051270;28;20197;-79
2024/03/30 07:11:51;;;;;;;17.30;7.17;;;;;;;18.18;46.92;96667.34;5050476;28;20279;-79
2024/03/30 07:14:20;;;;;;;6.93;4.27;;;;;;;18.24;46.02;96668.72;5050469;28;20660;-79
2024/03/30 07:16:47;;;;;;;8.83;3.27;;;;;;;18.43;46.45;96680.84;5051250;28;20252;-79
2024/03/30 07:19:14;;;;;;;13.17;4.43;;;;;;;18.52;46.44;96676.19;5050199;28;20190;-79
2024/03/30 07:21:39;;;;;;;13.40;4.13;;;;;;;18.86;44.84;96672.31;5046178;28;20234;-79
2024/03/30 07:24:06;;;;;;;10.17;4.47;;;;;;;18.81;44.64;96678.69;5038353;28;20198;-79
2024/03/30 07:26:32;;;;;;;9.40;5.00;;;;;;;19.12;44.62;96681.94;5054777;28;20201;-79
2024/03/30 07:28:59;;;;;;;17.47;5.03;;;;;;;19.09;43.25;96685.31;5050093;28;20201;-79
2024/03/30 07:31:25;;;;;;;22.67;6.47;;;;;;;19.38;43.30;96685.06;5052820;28;20311;-79
2024/03/30 07:33:54;;;;;;;15.23;6.20;;;;;;;19.60;43.17;96696.50;5052971;28;20194;-80
2024/03/30 07:36:19;;;;;;;11.87;6.03;;;;;;;19.30;42.62;96630.09;5052860;28;20707;-81
2024/03/30 07:38:46;;;;;;;16.60;4.37;;;;;;;19.41;43.23;96683.59;5053497;28;20197;-79
2024/03/30 07:41:12;;;;;;;13.97;4.63;;;;;;;19.47;43.13;96683.00;5053514;28;20578;-79
2024/03/30 07:43:39;;;;;;;9.20;4.33;;;;;;;19.78;41.83;96687.00;5053641;28;20252;-79
2024/03/30 07:46:05;;;;;;;9.57;3.67;;;;;;;20.00;42.00;96677.59;5053731;28;20209;-79
2024/03/30 07:48:33;;;;;;;23.60;8.87;;;;;;;20.07;42.41;96658.06;5054248;28;20257;-79
2024/03/30 07:51:01;;;;;;;16.10;5.47;;;;;;;19.74;41.93;96676.09;5054135;28;20210;-79
2024/03/30 07:53:28;;;;;;;16.17;4.10;;;;;;;19.62;42.32;96678.06;5053693;28;20190;-79
2024/03/30 07:55:54;;;;;;;9.30;4.30;;;;;;;19.99;40.31;96682.19;5053716;28;20210;-79
2024/03/30 07:58:21;;;;;;;18.07;4.33;;;;;;;20.37;40.89;96678.19;5053323;28;20307;-80
2024/03/30 08:00:47;;;;;;;16.70;4.27;;;;;;;20.30;39.10;96674.50;5051104;28;20732;-87
2024/03/30 08:03:13;;;;;;;12.10;4.80;;;;;;;20.52;39.04;96679.34;5051574;28;20197;-88
2024/03/30 08:05:39;;;;;;;7.90;3.40;;;;;;;20.58;37.55;96691.47;5050482;28;20194;-86
2024/03/30 08:08:07;;;;;;;18.43;5.07;;;;;;;21.12;37.22;96680.03;5048906;28;20201;-86
2024/03/30 08:10:33;;;;;;;18.33;8.03;;;;;;;21.37;36.46;96682.53;5053625;28;20193;-89
2024/03/30 08:13:00;;;;;;;16.27;4.80;;;;;;;21.30;37.69;96656.06;5053618;28;20201;-87
2024/03/30 08:15:26;;;;;;;8.27;3.57;;;;;;;21.46;35.66;96642.50;5053928;28;20267;-87
2024/03/30 08:17:53;;;;;;;18.20;4.30;;;;;;;21.86;35.82;96673.88;5052413;28;20202;-87
2024/03/30 08:20:18;;;;;;;5.30;3.13;;;;;;;21.90;34.81;96672.78;5053599;28;20738;-88
2024/03/30 08:22:46;;;;;;;9.63;3.50;;;;;;;21.71;35.96;96667.38;5053838;28;20201;-86
2024/03/30 08:25:13;;;;;;;10.80;3.17;;;;;;;21.78;35.70;96658.63;5053704;28;20204;-88
2024/03/30 08:27:39;;;;;;;9.47;3.00;;;;;;;22.09;36.10;96663.88;5053853;28;20201;-85
2024/03/30 08:30:06;;;;;;;12.63;4.20;;;;;;;22.84;34.30;96664.41;5052523;28;20213;-85
2024/03/30 08:32:33;;;;;;;17.57;4.20;;;;;;;22.69;34.08;96671.56;5051910;28;20661;-86
2024/03/30 08:34:59;;;;;;;10.57;3.13;;;;;;;22.37;33.52;96668.28;5052706;28;20198;-85
2024/03/30 08:37:26;;;;;;;11.07;3.57;;;;;;;22.15;33.88;96667.13;5053364;28;20205;-86
2024/03/30 08:39:51;;;;;;;10.00;4.73;;;;;;;22.76;33.96;96673.56;5051951;28;20198;-87
2024/03/30 08:42:19;;;;;;;12.07;3.07;;;;;;;22.36;32.98;96672.91;5053427;28;20678;-85
2024/03/30 08:44:45;;;;;;;11.93;3.90;;;;;;;22.76;31.67;96670.84;5053078;28;20216;-84
2024/03/30 08:47:12;;;;;;;10.80;3.03;;;;;;;22.88;29.77;96676.09;5052757;28;20202;-84
2024/03/30 08:49:38;;;;;;;7.43;2.40;;;;;;;22.43;29.67;96645.91;5053045;28;20205;-83
2024/03/30 08:52:05;;;;;;;8.93;2.90;;;;;;;23.06;30.33;96669.03;5053030;28;20656;-86
2024/03/30 08:54:32;;;;;;;10.57;3.47;;;;;;;23.30;28.63;96642.59;5052767;28;20208;-87
2024/03/30 08:56:59;;;;;;;9.00;2.93;;;;;;;23.56;28.67;96661.59;5053477;28;20197;-85
2024/03/30 08:59:26;;;;;;;9.63;3.57;;;;;;;23.35;28.45;96656.66;5052837;28;20229;-86
2024/03/30 09:01:54;;;;;;;12.20;3.10;;;;;;;23.36;30.09;96641.16;5053101;28;20312;-87
2024/03/30 09:04:20;;;;;;;13.73;3.10;;;;;;;23.46;30.56;96645.91;5053173;28;20652;-87
2024/03/30 09:06:46;;;;;;;9.43;3.70;;;;;;;23.03;30.23;96644.56;5053310;28;20205;-85
2024/03/30 09:09:12;;;;;;;7.53;2.77;;;;;;;22.89;29.99;96655.97;5051988;28;20202;-85
2024/03/30 09:11:39;;;;;;;10.97;2.93;;;;;;;22.45;30.64;96645.53;5043586;28;20198;-85
2024/03/30 09:14:05;;;;;;;9.13;3.00;;;;;;;22.41;29.44;96633.84;5052098;28;20683;-85
2024/03/30 09:16:33;;;;;;;9.30;2.70;;;;;;;22.49;30.14;96646.38;5053073;28;20190;-85
2024/03/30 09:18:59;;;;;;;8.03;2.60;;;;;;;22.91;29.49;96649.03;5052886;28;20201;-85
2024/03/30 09:21:26;;;;;;;14.33;2.50;;;;;;;23.72;28.98;96645.13;5049615;28;20218;-85
2024/03/30 09:23:52;;;;;;;7.47;2.60;;;;;;;23.63;26.29;96612.78;5052568;28;20194;-86
2024/03/30 09:26:19;;;;;;;9.60;2.90;;;;;;;23.06;26.01;96638.41;5047649;28;20684;-86
2024/03/30 09:28:44;;;;;;;7.63;1.97;;;;;;;23.56;25.05;96626.25;5047304;28;20283;-86
2024/03/30 09:31:11;;;;;;;7.80;2.40;;;;;;;23.94;25.52;96627.13;5052204;28;20229;-86
2024/03/30 09:33:38;;;;;;;5.27;2.20;;;;;;;23.30;25.42;96631.75;5052188;28;20204;-86
2024/03/30 09:36:08;;;;;;;7.50;2.67;;;;;;;23.47;26.90;96625.00;5051756;28;20197;-86
2024/03/30 09:38:34;;;;;;;11.57;2.90;;;;;;;23.61;26.43;96587.09;5051998;28;20657;-86
2024/03/30 09:41:04;;;;;;;6.17;2.60;;;;;;;23.91;27.11;96606.13;5050288;28;20276;-86
2024/03/30 09:43:30;;;;;;;6.43;2.33;;;;;;;23.36;27.10;96571.31;5052169;28;20198;-86
2024/03/30 09:45:58;;;;;;;9.33;3.23;;;;;;;23.84;27.75;96617.69;5047699;28;20201;-85
2024/03/30 09:48:24;;;;;;;5.13;2.40;;;;;;;24.03;28.52;96624.88;5051834;28;20206;-86
2024/03/30 09:50:54;;;;;;;12.73;2.83;;;;;;;24.36;27.82;96620.56;5052273;28;20263;-86
2024/03/30 09:53:25;;;;;;;8.47;2.80;;;;;;;23.57;28.86;96616.19;5044920;28;20268;-85
2024/03/30 09:55:55;;;;;;;7.20;3.00;;;;;;;23.67;28.41;96613.63;5052927;28;20197;-85
2024/03/30 09:58:22;;;;;;;11.30;2.50;;;;;;;24.08;28.22;96616.41;5051777;28;20665;-86
2024/03/30 10:00:50;;;;;;;6.70;3.57;;;;;;;24.07;29.27;96600.44;5051678;28;20267;-85
2024/03/30 10:03:15;;;;;;;8.87;2.60;;;;;;;23.42;28.65;96617.94;5040372;28;20207;-85
2024/03/30 10:05:47;;;;;;;9.43;3.17;;;;;;;22.98;30.92;96612.28;5051621;28;20657;-85
2024/03/30 10:08:17;;;;;;;7.53;2.77;;;;;;;23.16;30.47;96607.91;5051513;28;20210;-86
2024/03/30 10:10:50;;;;;;;9.90;2.93;;;;;;;23.41;30.56;96608.22;5052273;28;20217;-86
2024/03/30 10:13:26;;;;;;;4.63;2.63;;;;;;;22.93;31.49;96614.19;5051781;28;20200;-85
2024/03/30 10:15:53;;;;;;;6.63;2.50;;;;;;;23.18;32.15;96609.09;5051755;28;20630;-85
2024/03/30 10:18:19;;;;;;;6.07;2.87;;;;;;;22.86;31.79;96605.13;5045744;28;20202;-85
2024/03/30 10:20:47;;;;;;;12.30;3.47;;;;;;;22.84;31.61;96615.53;5043674;28;20300;-86
2024/03/30 10:23:15;;;;;;;12.90;3.40;;;;;;;23.10;31.50;96602.00;5051546;28;20289;-85
2024/03/30 10:25:52;;;;;;;11.60;2.97;;;;;;;23.32;31.61;96611.22;5051298;28;20221;-87
2024/03/30 10:28:18;;;;;;;13.43;4.10;;;;;;;23.03;32.67;96601.13;5050451;28;20198;-86
2024/03/30 10:30:45;;;;;;;8.87;3.67;;;;;;;22.97;33.10;96605.31;5031727;28;20206;-87
2024/03/30 10:33:12;;;;;;;7.17;3.67;;;;;;;22.95;33.81;96603.72;5045517;28;20205;-86
2024/03/30 10:35:39;;;;;;;7.57;3.30;;;;;;;22.31;33.26;96555.84;5040413;28;20553;-86
2024/03/30 10:38:05;;;;;;;7.23;2.83;;;;;;;22.82;33.11;96593.44;5051351;28;20205;-86
2024/03/30 10:40:37;;;;;;;7.73;2.80;;;;;;;23.15;32.48;96598.16;5051366;28;20217;-86
2024/03/30 10:43:03;;;;;;;10.93;3.93;;;;;;;23.92;32.40;96581.25;5050661;28;20201;-86
2024/03/30 10:45:34;;;;;;;12.43;3.50;;;;;;;23.64;33.04;96576.28;5051922;28;20223;-86
2024/03/30 10:48:00;;;;;;;11.20;3.50;;;;;;;23.99;31.66;96588.72;5041987;28;20193;-87
2024/03/30 10:50:27;;;;;;;7.43;2.90;;;;;;;23.52;31.76;96587.41;5047730;28;20190;-86
2024/03/30 10:52:53;;;;;;;7.00;2.67;;;;;;;23.27;31.20;96554.53;5031136;28;20281;-85
2024/03/30 10:55:20;;;;;;;7.63;2.67;;;;;;;23.13;31.88;96589.63;5031347;28;20289;-85
2024/03/30 10:57:48;;;;;;;7.17;2.83;;;;;;;23.42;31.68;96585.31;5050718;28;20198;-87
2024/03/30 11:00:15;;;;;;;12.57;3.70;;;;;;;22.89;33.80;96582.69;5050907;28;20232;-85
2024/03/30 11:02:44;;;;;;;5.83;2.57;;;;;;;23.33;33.75;96576.69;5051283;28;20202;-85
2024/03/30 11:05:11;;;;;;;7.67;2.57;;;;;;;23.63;31.96;96577.44;5050856;28;20260;-84
2024/03/30 11:07:39;;;;;;;10.83;3.73;;;;;;;23.05;32.81;96572.47;5050451;28;20201;-88
2024/03/30 11:10:06;;;;;;;9.53;3.70;;;;;;;22.87;34.20;96574.88;5050957;28;20190;-84
2024/03/30 11:12:32;;;;;;;6.20;3.27;;;;;;;23.18;34.64;96571.06;5050920;28;20193;-85
2024/03/30 11:15:01;;;;;;;10.97;3.67;;;;;;;23.59;34.22;96573.91;5050440;28;20219;-85
2024/03/30 11:17:31;;;;;;;14.57;4.23;;;;;;;23.48;33.68;96566.78;5050983;28;20708;-85
2024/03/30 11:20:06;;;;;;;11.33;3.27;;;;;;;23.21;33.95;96563.34;5050634;28;20198;-84
2024/03/30 11:22:53;;;;;;;7.90;3.30;;;;;;;23.58;33.97;96556.03;5032660;28;20564;-86
2024/03/30 11:25:21;;;;;;;6.53;3.00;;;;;;;23.39;34.86;96558.94;5030612;28;20293;-85
2024/03/30 11:27:52;;;;;;;18.53;4.90;;;;;;;23.24;35.64;96562.63;5046118;28;20272;-85
2024/03/30 11:30:35;;;;;;;8.83;3.97;;;;;;;22.65;35.32;96557.53;5042399;28;20229;-84
2024/03/30 11:33:10;;;;;;;11.83;3.23;;;;;;;23.12;35.30;96567.13;5050528;28;20232;-84